createdAt,value
2024-05-09T00:02:46.975Z,4.85
2024-05-09T00:10:34.608Z,5.97
2024-05-09T00:18:18.564Z,8.00
2024-05-09T00:25:57.543Z,8.98
2024-05-09T00:33:39.541Z,4.72
2024-05-09T00:41:20.105Z,6.75
2024-05-09T00:49:01.696Z,4.88
2024-05-09T00:56:40.833Z,6.43
2024-05-09T01:04:22.267Z,5.80
2024-05-09T01:12:01.507Z,8.45
2024-05-09T01:19:43.194Z,5.07
2024-05-09T01:27:25.072Z,8.45
2024-05-09T01:35:04.386Z,5.15
2024-05-09T01:42:46.547Z,9.68
2024-05-09T01:50:33.640Z,6.20
2024-05-09T01:58:19.627Z,6.03
2024-05-09T02:05:58.698Z,5.90
2024-05-09T02:13:40.397Z,5.80
2024-05-09T02:21:19.531Z,4.82
2024-05-09T02:29:01.200Z,6.75
2024-05-09T02:36:40.024Z,6.38
2024-05-09T02:44:21.772Z,3.85
2024-05-09T02:52:00.502Z,7.35
2024-05-09T02:59:42.174Z,8.43
2024-05-09T03:07:21.239Z,7.75
2024-05-09T03:15:02.642Z,11.85
2024-05-09T03:22:42.022Z,10.88
2024-05-09T03:30:31.153Z,5.80
2024-05-09T03:38:18.871Z,6.55
2024-05-09T03:46:00.407Z,8.55
2024-05-09T03:53:39.414Z,7.90
2024-05-09T04:01:21.195Z,8.70
2024-05-09T04:09:00.115Z,6.70
2024-05-09T04:16:41.727Z,9.05
2024-05-09T04:24:21.020Z,9.07
2024-05-09T04:32:02.874Z,6.45
2024-05-09T04:39:44.741Z,8.70
2024-05-09T04:47:27.156Z,9.15
2024-05-09T04:55:06.755Z,8.07
2024-05-09T05:02:48.475Z,6.85
2024-05-09T05:10:35.759Z,6.20
2024-05-09T05:18:21.875Z,8.00
2024-05-09T05:26:00.877Z,4.68
2024-05-09T05:33:43.759Z,10.18
2024-05-09T05:41:23.227Z,6.33
2024-05-09T05:49:05.700Z,6.50
2024-05-09T05:56:47.431Z,11.07
2024-05-09T06:04:31.438Z,7.38
2024-05-09T06:12:10.432Z,8.32
2024-05-09T06:19:52.717Z,7.53
2024-05-09T06:27:31.849Z,8.40
2024-05-09T06:35:13.511Z,8.18
2024-05-09T06:42:54.345Z,6.93
2024-05-09T06:50:38.257Z,7.88
2024-05-09T06:58:18.768Z,12.48
2024-05-09T07:06:00.704Z,9.52
2024-05-09T07:13:40.194Z,4.63
2024-05-09T07:21:21.665Z,8.60
2024-05-09T07:29:00.589Z,6.03
2024-05-09T07:36:42.314Z,6.93
2024-05-09T07:44:21.370Z,2.55
2024-05-09T07:53:27.000Z,5.72
2024-05-09T08:00:02.068Z,2.63
2024-05-09T08:07:47.790Z,3.53
2024-05-09T08:15:26.650Z,3.33
2024-05-09T08:23:08.266Z,1.60
2024-05-09T08:30:47.384Z,3.70
2024-05-09T08:38:28.923Z,2.72
2024-05-09T08:46:08.646Z,1.90
2024-05-09T08:53:50.320Z,4.00
2024-05-09T09:01:30.431Z,4.03
2024-05-09T09:09:13.294Z,3.30
2024-05-09T09:16:52.049Z,3.55
2024-05-09T09:24:33.713Z,5.15
2024-05-09T09:32:13.232Z,3.80
2024-05-09T09:39:54.801Z,4.18
2024-05-09T09:47:34.544Z,4.77
2024-05-09T09:55:16.320Z,2.45
2024-05-09T10:02:54.971Z,3.97
2024-05-09T10:10:38.478Z,2.97
2024-05-09T10:18:17.537Z,5.68
2024-05-09T10:26:03.692Z,4.40
2024-05-09T10:33:43.791Z,4.43
2024-05-09T10:41:26.184Z,3.42
2024-05-09T10:49:07.789Z,2.80
2024-05-09T10:56:50.091Z,5.47
2024-05-09T11:04:29.005Z,2.90
2024-05-09T11:12:11.580Z,3.55
2024-05-09T11:19:50.756Z,5.60
2024-05-09T11:27:32.871Z,3.90
2024-05-09T11:35:12.081Z,5.57
2024-05-09T11:42:53.888Z,3.45
2024-05-09T11:50:35.780Z,4.75
2024-05-09T11:58:18.505Z,3.97
2024-05-09T12:13:39.129Z,4.38
2024-05-09T12:21:18.253Z,3.70
2024-05-09T12:28:59.938Z,3.33
2024-05-09T12:36:41.362Z,5.32
2024-05-09T12:44:23.140Z,6.80
2024-05-09T12:52:01.990Z,5.55
2024-05-09T12:59:44.935Z,3.63
2024-05-09T13:07:23.860Z,4.10
2024-05-09T13:15:05.427Z,4.50
2024-05-09T13:22:45.114Z,11.57
2024-05-09T13:30:35.510Z,6.07
2024-05-09T13:38:19.352Z,6.57
2024-05-09T13:46:01.550Z,5.88
2024-05-09T13:53:40.803Z,4.45
2024-05-09T14:01:22.416Z,4.15
2024-05-09T14:09:01.796Z,4.53
2024-05-09T14:16:43.804Z,3.22
2024-05-09T14:24:22.957Z,8.45
2024-05-09T14:32:05.122Z,3.95
2024-05-09T14:39:44.025Z,5.18
2024-05-09T14:47:25.694Z,3.63
2024-05-09T14:55:04.716Z,5.88
2024-05-09T15:02:46.597Z,9.13
2024-05-09T15:10:34.114Z,10.05
2024-05-09T15:18:18.750Z,11.15
2024-05-09T15:25:57.780Z,6.20
2024-05-09T15:33:40.017Z,8.43
2024-05-09T15:41:18.960Z,3.77
2024-05-09T15:49:01.170Z,5.05
2024-05-09T15:56:41.056Z,7.80
2024-05-09T16:04:22.803Z,3.30
2024-05-09T16:12:01.723Z,7.13
2024-05-09T16:19:43.487Z,5.07
2024-05-09T16:27:22.439Z,2.50
2024-05-09T16:35:04.175Z,2.70
2024-05-09T16:42:43.162Z,3.58
2024-05-09T16:50:29.491Z,7.75
2024-05-09T16:58:12.774Z,5.90
2024-05-09T17:05:54.757Z,6.72
2024-05-09T17:13:34.333Z,5.03
2024-05-09T17:21:16.294Z,3.83
2024-05-09T17:28:55.740Z,3.55
2024-05-09T17:36:37.302Z,9.65
2024-05-09T17:44:16.280Z,4.25
2024-05-09T17:51:58.067Z,4.97
2024-05-09T17:59:36.771Z,2.38
2024-05-09T18:07:19.341Z,8.48
2024-05-09T18:14:58.250Z,2.47
2024-05-09T18:22:40.063Z,6.63
2024-05-09T18:30:27.380Z,6.03
2024-05-09T18:38:13.921Z,8.73
2024-05-09T18:45:53.419Z,7.85
2024-05-09T18:53:35.081Z,5.03
2024-05-09T19:01:14.522Z,6.90
2024-05-09T19:08:56.184Z,11.98
2024-05-09T19:16:35.978Z,9.27
2024-05-09T19:24:20.875Z,43.58
2024-05-09T19:31:59.962Z,16.88
2024-05-09T19:39:42.184Z,13.40
2024-05-09T19:47:21.911Z,21.98
2024-05-09T19:55:04.266Z,19.92
2024-05-09T20:02:44.393Z,18.90
2024-05-09T20:10:32.516Z,20.25
2024-05-09T20:18:14.591Z,14.48
2024-05-09T20:25:56.446Z,16.17
2024-05-09T20:33:35.962Z,14.32
2024-05-09T20:41:18.930Z,14.48
2024-05-09T20:48:58.993Z,16.05
2024-05-09T20:56:40.844Z,14.20
2024-05-09T21:04:20.254Z,16.27
2024-05-09T21:12:02.017Z,20.40
2024-05-09T21:19:41.216Z,14.30
2024-05-09T21:27:22.890Z,12.70
2024-05-09T21:35:02.240Z,11.68
2024-05-09T21:42:44.090Z,14.20
2024-05-09T21:50:28.440Z,16.90
2024-05-09T21:58:20.394Z,14.57
2024-05-09T22:05:59.672Z,19.30
2024-05-09T22:13:42.067Z,14.55
2024-05-09T22:21:21.050Z,18.95
2024-05-09T22:29:02.841Z,15.95
2024-05-09T22:36:42.182Z,13.05
2024-05-09T22:44:23.834Z,13.02
2024-05-09T22:52:02.750Z,21.75
2024-05-09T22:59:44.481Z,11.30
2024-05-09T23:07:23.370Z,9.55
2024-05-09T23:15:05.019Z,10.20
2024-05-09T23:22:43.985Z,12.18
2024-05-09T23:38:07.652Z,16.40
2024-05-09T23:45:49.392Z,13.98
2024-05-09T23:53:28.391Z,14.25
